Terminal Aerodrome Forecast
Issued by NWS

Home | Current Version | Previous Version | Text Only | Print | Product List | Glossary On
Versions: 1 2 3 4 5 6 7 8 9 10 11 12 13 14 15 16 17 18 19 20 21 22 23 24 25
000
FTUS45 KPSR 261436 AAA
TAFPHX
TAF AMD
KPHX 261436Z 2615/2712 35004KT P6SM SCT250
     FM261900 26010KT P6SM SCT250
     FM262300 28014G25KT P6SM FEW250
     FM270300 27010KT P6SM SKC=

USA.gov is the U.S. government's official web portal to all federal, state and local government web resources and services.